createdAt,value
2023-02-09T00:02:00.837Z,50.69
2023-02-09T00:04:27.501Z,51.28
2023-02-09T00:06:53.962Z,50.12
2023-02-09T00:09:20.357Z,50.09
2023-02-09T00:12:05.149Z,50.80
2023-02-09T00:14:33.462Z,50.05
2023-02-09T00:17:02.091Z,49.95
2023-02-09T00:19:28.906Z,50.11
2023-02-09T00:21:55.325Z,50.79
2023-02-09T00:24:21.674Z,50.31
2023-02-09T00:26:48.291Z,50.50
2023-02-09T00:29:15.389Z,50.82
2023-02-09T00:31:41.948Z,50.99
2023-02-09T00:34:08.776Z,51.57
2023-02-09T00:36:35.236Z,51.59
2023-02-09T00:39:01.865Z,52.28
2023-02-09T00:41:46.984Z,52.23
2023-02-09T00:44:13.431Z,52.37
2023-02-09T00:46:39.829Z,52.54
2023-02-09T00:49:06.683Z,52.93
2023-02-09T00:51:33.186Z,52.52
2023-02-09T00:54:01.839Z,53.29
2023-02-09T00:56:28.230Z,53.38
2023-02-09T00:58:54.721Z,54.65
2023-02-09T01:01:21.378Z,53.46
2023-02-09T01:03:47.876Z,54.08
2023-02-09T01:06:14.495Z,54.14
2023-02-09T01:08:40.901Z,53.98
2023-02-09T01:11:13.062Z,54.76
2023-02-09T01:13:39.764Z,54.77
2023-02-09T01:16:11.343Z,54.55
2023-02-09T01:18:40.949Z,54.70
2023-02-09T01:21:15.647Z,54.93
2023-02-09T01:23:42.666Z,55.42
2023-02-09T01:26:11.237Z,55.70
2023-02-09T01:28:38.073Z,55.36
2023-02-09T01:31:06.511Z,56.67
2023-02-09T01:33:33.479Z,55.73
2023-02-09T01:36:04.962Z,55.58
2023-02-09T01:38:31.694Z,55.58
2023-02-09T01:40:58.133Z,55.25
2023-02-09T01:43:24.508Z,56.14
2023-02-09T01:45:56.433Z,56.06
2023-02-09T01:48:30.249Z,56.31
2023-02-09T01:51:00.689Z,56.43
2023-02-09T01:53:27.943Z,55.89
2023-02-09T01:56:02.055Z,57.02
2023-02-09T01:58:28.818Z,56.65
2023-02-09T02:00:55.659Z,57.06
2023-02-09T02:03:26.880Z,57.23
2023-02-09T02:05:59.990Z,57.49
2023-02-09T02:08:40.984Z,58.03
2023-02-09T02:11:08.857Z,58.47
2023-02-09T02:13:35.588Z,58.80
2023-02-09T02:16:34.774Z,57.88
2023-02-09T02:19:33.634Z,59.17
2023-02-09T02:22:26.928Z,57.81
2023-02-09T02:25:08.641Z,59.54
2023-02-09T02:27:57.148Z,59.61
2023-02-09T02:30:29.740Z,59.70
2023-02-09T02:33:11.478Z,59.88
2023-02-09T02:35:51.348Z,60.01
2023-02-09T02:38:41.492Z,60.26
2023-02-09T02:41:25.539Z,60.18
2023-02-09T02:44:06.431Z,61.56
2023-02-09T02:46:44.719Z,60.91
2023-02-09T02:49:50.239Z,62.41
2023-02-09T02:52:17.071Z,62.30
2023-02-09T02:55:00.549Z,62.41
2023-02-09T02:57:31.850Z,61.72
2023-02-09T03:00:22.569Z,62.11
2023-02-09T03:02:53.642Z,61.78
2023-02-09T03:05:23.437Z,62.00
2023-02-09T03:07:51.073Z,61.88
2023-02-09T03:10:47.035Z,62.81
2023-02-09T03:13:31.693Z,62.46
2023-02-09T03:16:08.553Z,62.32
2023-02-09T03:18:57.090Z,62.65
2023-02-09T03:21:42.657Z,62.81
2023-02-09T03:24:37.553Z,62.70
2023-02-09T03:27:15.213Z,62.57
2023-02-09T03:29:45.031Z,63.33
2023-02-09T03:32:11.744Z,63.48
2023-02-09T03:34:38.481Z,63.25
2023-02-09T03:37:05.096Z,64.00
2023-02-09T03:39:31.507Z,63.68
2023-02-09T03:41:57.895Z,63.70
2023-02-09T03:44:27.548Z,63.90
2023-02-09T03:46:59.733Z,63.87
2023-02-09T03:49:28.606Z,63.81
2023-02-09T03:51:55.184Z,64.61
2023-02-09T03:54:21.670Z,64.52
2023-02-09T03:56:48.447Z,64.56
2023-02-09T03:59:14.990Z,64.90
2023-02-09T04:01:41.357Z,65.11
2023-02-09T04:04:07.784Z,65.20
2023-02-09T04:06:35.456Z,65.67
2023-02-09T04:09:03.068Z,65.62
2023-02-09T04:11:29.518Z,65.69
2023-02-09T04:13:55.875Z,66.38
2023-02-09T04:16:22.785Z,66.30
2023-02-09T04:18:49.309Z,66.43
2023-02-09T04:21:15.713Z,66.06
2023-02-09T04:23:42.133Z,66.58
2023-02-09T04:26:08.718Z,66.67
2023-02-09T04:28:35.327Z,67.14
2023-02-09T04:31:01.863Z,67.17
2023-02-09T04:33:28.459Z,67.69
2023-02-09T04:35:54.961Z,67.91
2023-02-09T04:38:22.220Z,68.10
2023-02-09T04:40:52.303Z,68.20
2023-02-09T04:43:18.765Z,67.73
2023-02-09T04:45:45.525Z,68.34
2023-02-09T04:48:14.777Z,68.32
2023-02-09T04:50:41.959Z,68.90
2023-02-09T04:53:08.844Z,68.69
2023-02-09T04:55:40.057Z,69.06
2023-02-09T04:58:25.057Z,69.26
2023-02-09T05:00:51.557Z,69.25
2023-02-09T05:03:18.019Z,69.73
2023-02-09T05:05:44.764Z,69.31
2023-02-09T05:08:11.242Z,69.58
2023-02-09T05:10:37.734Z,69.56
2023-02-09T05:13:04.221Z,70.27
2023-02-09T05:15:30.781Z,69.90
2023-02-09T05:17:57.213Z,69.87
2023-02-09T05:20:23.610Z,70.33
2023-02-09T05:22:50.324Z,70.19
2023-02-09T05:25:17.015Z,70.35
2023-02-09T05:27:43.378Z,70.97
2023-02-09T05:30:10.507Z,70.43
2023-02-09T05:32:36.883Z,70.15
2023-02-09T05:35:03.265Z,71.02
2023-02-09T05:37:29.859Z,70.80
2023-02-09T05:39:57.178Z,70.02
2023-02-09T05:42:23.766Z,69.85
2023-02-09T05:44:51.345Z,70.77
2023-02-09T05:47:19.640Z,71.08
2023-02-09T05:49:46.236Z,71.30
2023-02-09T05:52:13.316Z,71.28
2023-02-09T05:54:39.775Z,71.21
2023-02-09T05:57:06.913Z,71.49
2023-02-09T05:59:33.676Z,71.13
2023-02-09T06:02:00.609Z,71.98
2023-02-09T06:04:28.638Z,72.74
2023-02-09T06:06:55.781Z,72.37
2023-02-09T06:09:22.280Z,71.91
2023-02-09T06:11:48.738Z,72.72
2023-02-09T06:14:15.735Z,71.89
2023-02-09T06:16:42.376Z,72.09
2023-02-09T06:19:13.059Z,71.96
2023-02-09T06:21:39.615Z,72.24
2023-02-09T06:24:06.210Z,72.15
2023-02-09T06:26:32.607Z,71.56
2023-02-09T06:28:59.197Z,72.78
2023-02-09T06:31:25.714Z,72.39
2023-02-09T06:33:52.234Z,72.38
2023-02-09T06:36:18.684Z,72.63
2023-02-09T06:38:45.132Z,72.54
2023-02-09T06:41:11.744Z,72.30
2023-02-09T06:43:38.222Z,72.33
2023-02-09T06:46:06.922Z,72.67
2023-02-09T06:48:33.492Z,72.45
2023-02-09T06:51:00.294Z,72.45
2023-02-09T06:53:27.029Z,72.63
2023-02-09T06:55:59.522Z,72.33
2023-02-09T06:58:25.963Z,72.46
2023-02-09T07:00:52.498Z,72.48
2023-02-09T07:03:19.224Z,71.74
2023-02-09T07:05:46.167Z,72.89
2023-02-09T07:08:12.623Z,72.73
2023-02-09T07:10:40.826Z,72.71
2023-02-09T07:13:07.182Z,73.72
2023-02-09T07:15:33.650Z,73.09
2023-02-09T07:18:00.108Z,72.73
2023-02-09T07:20:26.571Z,73.13
2023-02-09T07:22:52.995Z,72.83
2023-02-09T07:25:19.447Z,73.33
2023-02-09T07:27:45.888Z,73.06
2023-02-09T07:30:12.946Z,72.76
2023-02-09T07:32:39.781Z,72.96
2023-02-09T07:35:06.330Z,72.86
2023-02-09T07:37:34.172Z,73.11
2023-02-09T07:40:00.763Z,72.84
2023-02-09T07:42:27.223Z,73.79
2023-02-09T07:44:58.179Z,73.30
2023-02-09T07:47:24.602Z,72.92
2023-02-09T07:49:51.036Z,72.50
2023-02-09T07:52:17.416Z,72.58
2023-02-09T07:54:43.979Z,72.32
2023-02-09T07:57:12.383Z,72.05
2023-02-09T07:59:38.765Z,72.13
2023-02-09T08:02:06.453Z,72.82
2023-02-09T08:04:32.857Z,72.50
2023-02-09T08:07:00.338Z,72.52
2023-02-09T08:09:26.899Z,71.58
2023-02-09T08:11:57.431Z,72.10
2023-02-09T08:14:31.175Z,71.22
2023-02-09T08:17:21.217Z,71.24
2023-02-09T08:19:52.051Z,72.00
2023-02-09T08:22:18.907Z,72.38
2023-02-09T08:24:45.376Z,71.79
2023-02-09T08:27:11.933Z,72.13
2023-02-09T08:29:38.507Z,71.71
2023-02-09T08:32:05.145Z,72.48
2023-02-09T08:34:31.708Z,71.43
2023-02-09T08:36:58.163Z,72.02
2023-02-09T08:39:24.528Z,72.16
2023-02-09T08:41:50.897Z,71.24
2023-02-09T08:44:17.255Z,72.42
2023-02-09T08:46:43.853Z,71.73
2023-02-09T08:49:10.405Z,71.28
2023-02-09T08:51:36.843Z,70.70
2023-02-09T08:54:03.299Z,70.85
2023-02-09T08:56:29.765Z,70.90
2023-02-09T08:58:56.118Z,70.36
2023-02-09T09:01:22.547Z,70.02
2023-02-09T09:03:49.377Z,69.41
2023-02-09T09:06:15.960Z,69.69
2023-02-09T09:08:42.377Z,69.79
2023-02-09T09:11:13.171Z,70.03
2023-02-09T09:13:41.083Z,70.26
2023-02-09T09:16:14.266Z,70.17
2023-02-09T09:18:40.690Z,69.62
2023-02-09T09:21:07.101Z,70.65
2023-02-09T09:23:33.468Z,69.84
2023-02-09T09:26:02.038Z,69.66
2023-02-09T09:28:29.005Z,69.34
2023-02-09T09:30:56.094Z,68.54
2023-02-09T09:33:22.548Z,68.19
2023-02-09T09:35:49.001Z,69.31
2023-02-09T09:38:15.723Z,69.17
2023-02-09T09:40:45.891Z,68.46
2023-02-09T09:43:27.344Z,70.06
2023-02-09T09:45:54.214Z,68.36
2023-02-09T09:48:40.594Z,67.39
2023-02-09T09:51:15.518Z,66.86
2023-02-09T09:53:44.147Z,66.29
2023-02-09T09:56:13.509Z,66.33
2023-02-09T09:58:43.164Z,65.93
2023-02-09T10:01:18.230Z,64.26
2023-02-09T10:03:44.690Z,64.13
2023-02-09T10:06:22.559Z,63.52
2023-02-09T10:08:55.071Z,63.12
2023-02-09T10:11:30.265Z,63.40
2023-02-09T10:13:57.968Z,63.76
2023-02-09T10:16:27.388Z,62.76
2023-02-09T10:18:56.372Z,62.45
2023-02-09T10:21:25.701Z,61.82
2023-02-09T10:24:20.124Z,61.33
2023-02-09T10:27:13.112Z,61.74
2023-02-09T10:29:39.840Z,61.02
2023-02-09T10:32:15.726Z,60.63
2023-02-09T10:34:49.102Z,59.97
2023-02-09T10:37:35.320Z,59.43
2023-02-09T10:40:25.456Z,58.55
2023-02-09T10:43:00.762Z,58.05
2023-02-09T10:45:55.246Z,58.80
2023-02-09T10:48:24.189Z,55.53
2023-02-09T10:51:06.151Z,55.48
2023-02-09T10:54:00.045Z,55.52
2023-02-09T10:56:28.323Z,55.25
2023-02-09T10:59:17.626Z,54.70
2023-02-09T11:01:55.830Z,56.30
2023-02-09T11:04:24.959Z,54.48
2023-02-09T11:06:57.992Z,53.30
2023-02-09T11:09:32.763Z,54.04
2023-02-09T11:11:59.156Z,54.08
2023-02-09T11:14:25.662Z,53.37
2023-02-09T11:17:09.550Z,51.06
2023-02-09T11:19:54.759Z,51.04
2023-02-09T11:22:21.062Z,50.35
2023-02-09T11:25:16.894Z,49.63
2023-02-09T11:27:56.211Z,48.83
2023-02-09T11:30:22.644Z,48.56
2023-02-09T11:33:07.629Z,46.57
2023-02-09T11:35:51.255Z,47.26
2023-02-09T11:38:20.215Z,46.80
2023-02-09T11:40:53.623Z,45.48
2023-02-09T11:43:25.085Z,47.43
2023-02-09T11:45:56.555Z,45.19
2023-02-09T11:48:44.977Z,46.01
2023-02-09T11:51:26.578Z,44.85
2023-02-09T11:54:07.385Z,44.44
2023-02-09T11:56:42.215Z,44.34
2023-02-09T11:59:42.128Z,44.39
2023-02-09T12:02:37.357Z,43.55
2023-02-09T12:05:05.154Z,44.42
2023-02-09T12:07:51.732Z,44.03
2023-02-09T12:10:32.284Z,42.93
2023-02-09T12:13:13.239Z,42.91
2023-02-09T12:15:52.647Z,42.68
2023-02-09T12:18:22.751Z,42.40
2023-02-09T12:20:52.446Z,42.84
2023-02-09T12:23:21.871Z,42.58
2023-02-09T12:26:01.033Z,44.27
2023-02-09T12:28:27.489Z,42.46
2023-02-09T12:30:53.901Z,41.27
2023-02-09T12:33:23.246Z,40.92
2023-02-09T12:36:27.110Z,40.33
2023-02-09T12:39:04.690Z,39.97
2023-02-09T12:41:34.435Z,40.60
2023-02-09T12:44:09.739Z,40.24
2023-02-09T12:46:45.414Z,40.02
2023-02-09T12:49:11.718Z,40.08
2023-02-09T12:51:43.205Z,39.54
2023-02-09T12:54:47.259Z,39.47
2023-02-09T12:57:16.919Z,40.74
2023-02-09T12:59:49.585Z,39.16
2023-02-09T13:02:50.500Z,38.96
2023-02-09T13:05:21.990Z,37.45
2023-02-09T13:07:55.457Z,38.00
2023-02-09T13:10:40.583Z,37.71
2023-02-09T13:13:18.308Z,37.26
2023-02-09T13:15:47.689Z,37.16
2023-02-09T13:18:19.843Z,36.94
2023-02-09T13:21:17.523Z,37.36
2023-02-09T13:24:04.182Z,37.72
2023-02-09T13:26:32.740Z,36.70
2023-02-09T13:29:22.134Z,37.14
2023-02-09T13:31:58.738Z,37.01
2023-02-09T13:34:31.202Z,36.76
2023-02-09T13:37:14.141Z,36.86
2023-02-09T13:39:41.888Z,36.78
2023-02-09T13:42:22.677Z,36.71
2023-02-09T13:44:55.964Z,36.27
2023-02-09T13:47:23.466Z,36.73
2023-02-09T13:49:55.911Z,36.50
2023-02-09T13:52:23.526Z,37.11
2023-02-09T13:54:50.563Z,37.18
2023-02-09T13:57:27.572Z,36.81
2023-02-09T13:59:54.432Z,36.16
2023-02-09T14:02:25.959Z,36.17
2023-02-09T14:04:58.966Z,36.82
2023-02-09T14:07:30.904Z,36.99
2023-02-09T14:10:17.963Z,36.92
2023-02-09T14:12:52.439Z,37.09
2023-02-09T14:15:48.340Z,36.88
2023-02-09T14:18:21.219Z,36.99
2023-02-09T14:21:02.949Z,38.22
2023-02-09T14:23:32.912Z,37.51
2023-02-09T14:26:14.319Z,36.92
2023-02-09T14:28:48.999Z,36.87
2023-02-09T14:31:26.581Z,36.67
2023-02-09T14:33:55.762Z,36.64
2023-02-09T14:36:32.353Z,37.56
2023-02-09T14:39:10.714Z,37.41
2023-02-09T14:41:37.204Z,37.70
2023-02-09T14:44:20.135Z,38.40
2023-02-09T14:46:49.123Z,38.00
2023-02-09T14:49:15.972Z,38.03
2023-02-09T14:51:43.596Z,38.27
2023-02-09T14:54:18.319Z,38.46
2023-02-09T14:56:45.216Z,38.70
2023-02-09T14:59:17.043Z,39.90
2023-02-09T15:01:44.832Z,39.96
2023-02-09T15:04:11.303Z,40.13
2023-02-09T15:06:38.948Z,40.24
2023-02-09T15:09:07.059Z,40.21
2023-02-09T15:11:52.711Z,40.68
2023-02-09T15:14:24.873Z,40.11
2023-02-09T15:16:51.832Z,40.49
2023-02-09T15:19:22.002Z,40.73
2023-02-09T15:22:01.880Z,41.40
2023-02-09T15:24:32.818Z,41.89
2023-02-09T15:26:59.238Z,43.58
2023-02-09T15:29:25.630Z,42.44
2023-02-09T15:31:52.814Z,42.76
2023-02-09T15:34:19.195Z,42.51
2023-02-09T15:36:45.922Z,43.42
2023-02-09T15:39:27.927Z,44.41
2023-02-09T15:42:12.764Z,43.48
2023-02-09T15:44:57.720Z,42.99
2023-02-09T15:47:42.844Z,43.58
2023-02-09T15:50:09.493Z,43.33
2023-02-09T15:52:36.168Z,44.57
2023-02-09T15:55:02.628Z,45.87
2023-02-09T15:57:29.171Z,47.20
2023-02-09T15:59:55.552Z,46.90
2023-02-09T16:02:22.272Z,46.08
2023-02-09T16:04:49.026Z,46.13
2023-02-09T16:07:22.508Z,46.60
2023-02-09T16:09:48.886Z,49.16
2023-02-09T16:12:15.334Z,46.96
2023-02-09T16:14:41.716Z,50.09
2023-02-09T16:17:08.706Z,48.71
2023-02-09T16:19:35.107Z,48.13
2023-02-09T16:22:04.574Z,51.57
2023-02-09T16:24:43.705Z,51.35
2023-02-09T16:27:16.951Z,49.18
2023-02-09T16:29:43.493Z,49.25
2023-02-09T16:32:16.273Z,50.35
2023-02-09T16:34:43.671Z,49.51
2023-02-09T16:37:15.066Z,49.35
2023-02-09T16:39:42.290Z,51.04
2023-02-09T16:42:15.823Z,52.53
2023-02-09T16:44:42.658Z,53.80
2023-02-09T16:47:25.945Z,53.54
2023-02-09T16:50:02.526Z,52.03
2023-02-09T16:52:30.161Z,51.68
2023-02-09T16:54:59.898Z,52.10
2023-02-09T16:57:28.604Z,54.42
2023-02-09T16:59:55.541Z,53.62
2023-02-09T17:02:27.850Z,53.71
2023-02-09T17:04:54.426Z,54.55
2023-02-09T17:07:24.365Z,52.41
2023-02-09T17:09:50.851Z,53.57
2023-02-09T17:12:17.236Z,54.77
2023-02-09T17:14:43.594Z,54.28
2023-02-09T17:17:17.552Z,54.08
2023-02-09T17:19:47.790Z,55.28
2023-02-09T17:22:15.156Z,55.43
2023-02-09T17:24:41.533Z,57.45
2023-02-09T17:27:09.515Z,55.73
2023-02-09T17:29:35.994Z,55.56
2023-02-09T17:32:02.881Z,55.00
2023-02-09T17:34:29.519Z,55.94
2023-02-09T17:36:56.756Z,55.89
2023-02-09T17:39:23.509Z,55.03
2023-02-09T17:41:50.229Z,55.27
2023-02-09T17:44:44.952Z,55.08
2023-02-09T17:47:16.855Z,55.49
2023-02-09T17:49:43.491Z,55.70
2023-02-09T17:52:20.431Z,55.23
2023-02-09T17:54:47.652Z,57.10
2023-02-09T17:57:15.532Z,56.55
2023-02-09T17:59:42.241Z,56.01
2023-02-09T18:02:17.712Z,56.41
2023-02-09T18:04:44.265Z,56.62
2023-02-09T18:07:11.217Z,57.04
2023-02-09T18:09:37.662Z,56.52
2023-02-09T18:12:10.553Z,56.39
2023-02-09T18:14:36.948Z,56.59
2023-02-09T18:17:03.685Z,56.60
2023-02-09T18:19:30.289Z,56.78
2023-02-09T18:21:59.262Z,57.34
2023-02-09T18:24:28.880Z,57.32
2023-02-09T18:26:55.875Z,57.50
2023-02-09T18:29:26.000Z,57.83
2023-02-09T18:31:52.437Z,58.28
2023-02-09T18:34:19.114Z,58.71
2023-02-09T18:36:45.545Z,59.19
2023-02-09T18:39:15.074Z,59.35
2023-02-09T18:41:42.059Z,59.92
2023-02-09T18:44:08.766Z,60.63
2023-02-09T18:46:35.279Z,60.85
2023-02-09T18:49:03.494Z,60.96
2023-02-09T18:51:31.203Z,61.40
2023-02-09T18:53:57.952Z,62.34
2023-02-09T18:56:26.673Z,62.06
2023-02-09T18:58:53.092Z,62.96
2023-02-09T19:01:22.159Z,64.57
2023-02-09T19:03:52.918Z,64.39
2023-02-09T19:06:21.022Z,64.57
2023-02-09T19:08:50.119Z,64.29
2023-02-09T19:11:20.473Z,65.32
2023-02-09T19:14:05.662Z,65.50
2023-02-09T19:16:32.373Z,65.98
2023-02-09T19:18:59.010Z,66.17
2023-02-09T19:21:25.406Z,66.71
2023-02-09T19:23:51.898Z,66.54
2023-02-09T19:26:18.486Z,67.48
2023-02-09T19:28:44.864Z,68.12
2023-02-09T19:31:16.203Z,68.73
2023-02-09T19:33:42.598Z,68.77
2023-02-09T19:36:09.398Z,69.99
2023-02-09T19:38:35.775Z,70.08
2023-02-09T19:41:10.390Z,71.40
2023-02-09T19:43:39.029Z,72.15
2023-02-09T19:46:05.778Z,72.88
2023-02-09T19:48:32.411Z,72.78
2023-02-09T19:50:59.442Z,73.02
2023-02-09T19:53:26.654Z,73.81
2023-02-09T19:55:53.986Z,72.83
2023-02-09T19:58:23.835Z,72.90
2023-02-09T20:00:52.041Z,73.49
2023-02-09T20:03:18.937Z,74.07
2023-02-09T20:05:46.562Z,74.29
2023-02-09T20:08:16.190Z,73.64
2023-02-09T20:10:44.116Z,73.65
2023-02-09T20:13:12.752Z,74.31
2023-02-09T20:15:44.102Z,73.70
2023-02-09T20:18:12.122Z,74.73
2023-02-09T20:20:40.972Z,74.77
2023-02-09T20:23:08.176Z,75.51
2023-02-09T20:25:34.699Z,75.87
2023-02-09T20:28:01.155Z,75.62
2023-02-09T20:30:28.051Z,74.75
2023-02-09T20:32:54.829Z,75.32
2023-02-09T20:35:21.280Z,75.62
2023-02-09T20:37:47.642Z,75.38
2023-02-09T20:40:14.188Z,74.74
2023-02-09T20:42:59.058Z,75.01
2023-02-09T20:45:44.025Z,74.40
2023-02-09T20:48:10.549Z,74.03
2023-02-09T20:50:37.001Z,73.68
2023-02-09T20:53:03.452Z,74.23
2023-02-09T20:55:30.139Z,74.88
2023-02-09T20:57:56.971Z,74.70
2023-02-09T21:00:23.421Z,74.66
2023-02-09T21:02:50.273Z,74.29
2023-02-09T21:05:16.746Z,75.81
2023-02-09T21:07:43.387Z,75.47
2023-02-09T21:10:12.752Z,75.40
2023-02-09T21:12:39.536Z,76.04
2023-02-09T21:15:06.388Z,76.32
2023-02-09T21:17:32.994Z,76.52
2023-02-09T21:19:59.387Z,77.15
2023-02-09T21:22:25.892Z,76.93
2023-02-09T21:24:52.294Z,77.40
2023-02-09T21:27:19.144Z,77.71
2023-02-09T21:29:45.719Z,77.12
2023-02-09T21:32:12.098Z,77.46
2023-02-09T21:34:38.508Z,78.18
2023-02-09T21:37:08.249Z,78.54
2023-02-09T21:39:34.708Z,78.96
2023-02-09T21:42:19.643Z,78.53
2023-02-09T21:44:46.040Z,77.96
2023-02-09T21:47:12.486Z,78.32
2023-02-09T21:49:39.272Z,78.86
2023-02-09T21:52:05.740Z,80.23
2023-02-09T21:54:33.732Z,81.15
2023-02-09T21:57:03.788Z,81.01
2023-02-09T21:59:30.258Z,81.69
2023-02-09T22:01:56.850Z,82.02
2023-02-09T22:04:23.395Z,81.82
2023-02-09T22:06:49.878Z,82.17
2023-02-09T22:09:16.306Z,82.46
2023-02-09T22:11:42.755Z,82.13
2023-02-09T22:14:09.421Z,82.55
2023-02-09T22:16:35.933Z,82.41
2023-02-09T22:19:02.342Z,82.77
2023-02-09T22:21:28.766Z,82.79
2023-02-09T22:23:55.189Z,82.99
2023-02-09T22:26:21.586Z,82.87
2023-02-09T22:28:48.532Z,82.87
2023-02-09T22:31:17.462Z,83.45
2023-02-09T22:33:44.333Z,83.49
2023-02-09T22:36:15.229Z,83.62
2023-02-09T22:38:44.465Z,83.81
2023-02-09T22:41:22.685Z,83.47
2023-02-09T22:43:57.715Z,83.62
2023-02-09T22:46:26.430Z,83.91
2023-02-09T22:48:58.652Z,83.90
2023-02-09T22:51:28.251Z,84.42
2023-02-09T22:53:55.814Z,84.82
2023-02-09T22:56:23.229Z,84.79
2023-02-09T22:58:49.820Z,84.17
2023-02-09T23:01:17.585Z,84.42
2023-02-09T23:03:44.228Z,84.99
2023-02-09T23:06:14.660Z,85.12
2023-02-09T23:08:41.072Z,85.81
2023-02-09T23:11:10.422Z,86.02
2023-02-09T23:13:38.066Z,86.19
2023-02-09T23:16:17.672Z,86.67
2023-02-09T23:18:53.314Z,86.81
2023-02-09T23:21:21.598Z,86.99
2023-02-09T23:23:48.562Z,87.07
2023-02-09T23:26:16.540Z,87.00
2023-02-09T23:28:43.076Z,86.99
2023-02-09T23:31:16.428Z,87.52
2023-02-09T23:33:43.170Z,87.30
2023-02-09T23:36:13.427Z,87.74
2023-02-09T23:38:40.275Z,87.90
2023-02-09T23:41:09.230Z,88.30
2023-02-09T23:43:36.608Z,88.18
2023-02-09T23:46:08.898Z,88.54
2023-02-09T23:48:35.508Z,88.96
2023-02-09T23:51:12.304Z,89.22
2023-02-09T23:53:39.145Z,88.98
2023-02-09T23:56:06.175Z,89.40
2023-02-09T23:58:36.218Z,88.87
